sensor_id;sensor_type;location;lat;lon;timestamp;pressure;altitude;pressure_sealevel;temperature;humidity
63554;BME280;49699;48.072;7.800;2023-01-26T00:01:23;100058.16;;;0.75;88.45
63554;BME280;49699;48.072;7.800;2023-01-26T00:03:49;100052.16;;;0.76;88.38
63554;BME280;49699;48.072;7.800;2023-01-26T00:06:17;100058.16;;;0.75;88.44
63554;BME280;49699;48.072;7.800;2023-01-26T00:08:49;100052.22;;;0.72;88.69
63554;BME280;49699;48.072;7.800;2023-01-26T00:11:20;100047.13;;;0.67;88.79
63554;BME280;49699;48.072;7.800;2023-01-26T00:13:49;100053.13;;;0.64;88.94
63554;BME280;49699;48.072;7.800;2023-01-26T00:16:15;100053.97;;;0.63;89.10
63554;BME280;49699;48.072;7.800;2023-01-26T00:18:41;100044.59;;;0.62;89.22
63554;BME280;49699;48.072;7.800;2023-01-26T00:21:08;100039.47;;;0.61;89.25
63554;BME280;49699;48.072;7.800;2023-01-26T00:23:35;100035.22;;;0.57;89.39
63554;BME280;49699;48.072;7.800;2023-01-26T00:26:01;100034.41;;;0.55;89.74
63554;BME280;49699;48.072;7.800;2023-01-26T00:28:27;100030.97;;;0.54;89.88
63554;BME280;49699;48.072;7.800;2023-01-26T00:30:53;100031.88;;;0.52;89.97
63554;BME280;49699;48.072;7.800;2023-01-26T00:33:25;100025.06;;;0.51;89.88
63554;BME280;49699;48.072;7.800;2023-01-26T00:35:54;100022.50;;;0.48;90.09
63554;BME280;49699;48.072;7.800;2023-01-26T00:38:19;100022.50;;;0.48;90.01
63554;BME280;49699;48.072;7.800;2023-01-26T00:40:45;100014.84;;;0.46;90.26
63554;BME280;49699;48.072;7.800;2023-01-26T00:43:12;100016.53;;;0.49;90.12
63554;BME280;49699;48.072;7.800;2023-01-26T00:45:37;100014.00;;;0.46;90.17
63554;BME280;49699;48.072;7.800;2023-01-26T00:48:04;100016.56;;;0.44;90.39
63554;BME280;49699;48.072;7.800;2023-01-26T00:50:29;100010.59;;;0.42;90.20
63554;BME280;49699;48.072;7.800;2023-01-26T00:52:55;99996.97;;;0.39;90.45
63554;BME280;49699;48.072;7.800;2023-01-26T00:55:22;99996.09;;;0.40;90.79
63554;BME280;49699;48.072;7.800;2023-01-26T00:57:48;99997.81;;;0.41;90.46
63554;BME280;49699;48.072;7.800;2023-01-26T01:00:15;99999.50;;;0.42;90.45
63554;BME280;49699;48.072;7.800;2023-01-26T01:02:42;100003.78;;;0.41;90.59
63554;BME280;49699;48.072;7.800;2023-01-26T01:05:09;99991.81;;;0.42;90.38
63554;BME280;49699;48.072;7.800;2023-01-26T01:07:35;99996.09;;;0.41;90.54
63554;BME280;49699;48.072;7.800;2023-01-26T01:10:00;99995.25;;;0.38;90.38
63554;BME280;49699;48.072;7.800;2023-01-26T01:12:26;99992.69;;;0.41;90.40
63554;BME280;49699;48.072;7.800;2023-01-26T01:14:53;99993.53;;;0.40;90.42
63554;BME280;49699;48.072;7.800;2023-01-26T01:17:18;99985.00;;;0.41;90.30
63554;BME280;49699;48.072;7.800;2023-01-26T01:19:44;99987.53;;;0.44;90.29
63554;BME280;49699;48.072;7.800;2023-01-26T01:22:11;99973.03;;;0.43;90.05
63554;BME280;49699;48.072;7.800;2023-01-26T01:24:36;99976.47;;;0.39;90.08
63554;BME280;49699;48.072;7.800;2023-01-26T01:27:02;99970.56;;;0.33;90.06
63554;BME280;49699;48.072;7.800;2023-01-26T01:29:27;99974.84;;;0.33;90.22
63554;BME280;49699;48.072;7.800;2023-01-26T01:31:53;99971.41;;;0.34;90.26
63554;BME280;49699;48.072;7.800;2023-01-26T01:34:18;99973.97;;;0.32;90.00
63554;BME280;49699;48.072;7.800;2023-01-26T01:36:44;99970.56;;;0.33;90.13
63554;BME280;49699;48.072;7.800;2023-01-26T01:39:09;99971.41;;;0.32;90.02
63554;BME280;49699;48.072;7.800;2023-01-26T01:41:34;99967.16;;;0.30;89.90
63554;BME280;49699;48.072;7.800;2023-01-26T01:44:12;99968.91;;;0.23;90.27
63554;BME280;49699;48.072;7.800;2023-01-26T01:46:38;99968.91;;;0.23;90.05
63554;BME280;49699;48.072;7.800;2023-01-26T01:49:16;99960.41;;;0.21;90.45
63554;BME280;49699;48.072;7.800;2023-01-26T01:51:48;99962.94;;;0.21;90.16
63554;BME280;49699;48.072;7.800;2023-01-26T01:54:17;99954.44;;;0.19;90.30
63554;BME280;49699;48.072;7.800;2023-01-26T01:56:48;99956.16;;;0.19;90.12
63554;BME280;49699;48.072;7.800;2023-01-26T01:59:15;99961.31;;;0.16;90.39
63554;BME280;49699;48.072;7.800;2023-01-26T02:01:45;99958.69;;;0.19;90.56
63554;BME280;49699;48.072;7.800;2023-01-26T02:04:11;99962.09;;;0.24;90.41
63554;BME280;49699;48.072;7.800;2023-01-26T02:06:57;99962.91;;;0.27;90.28
63554;BME280;49699;48.072;7.800;2023-01-26T02:09:32;99959.53;;;0.25;90.17
63554;BME280;49699;48.072;7.800;2023-01-26T02:12:20;99957.78;;;0.30;90.30
63554;BME280;49699;48.072;7.800;2023-01-26T02:14:48;99959.47;;;0.31;89.79
63554;BME280;49699;48.072;7.800;2023-01-26T02:17:15;99959.50;;;0.30;89.73
63554;BME280;49699;48.072;7.800;2023-01-26T02:20:01;99951.81;;;0.30;89.69
63554;BME280;49699;48.072;7.800;2023-01-26T02:22:54;99955.25;;;0.27;89.85
63554;BME280;49699;48.072;7.800;2023-01-26T02:28:01;99955.25;;;0.23;89.73
63554;BME280;49699;48.072;7.800;2023-01-26T02:30:27;99948.41;;;0.26;89.84
63554;BME280;49699;48.072;7.800;2023-01-26T02:32:53;99946.72;;;0.25;89.67
63554;BME280;49699;48.072;7.800;2023-01-26T02:35:19;99933.91;;;0.27;89.70
63554;BME280;49699;48.072;7.800;2023-01-26T02:37:44;99938.19;;;0.23;89.67
63554;BME280;49699;48.072;7.800;2023-01-26T02:40:20;99931.38;;;0.24;89.50
63554;BME280;49699;48.072;7.800;2023-01-26T02:42:48;99928.81;;;0.21;89.50
63554;BME280;49699;48.072;7.800;2023-01-26T02:45:19;99928.81;;;0.22;89.48
63554;BME280;49699;48.072;7.800;2023-01-26T02:47:45;99927.97;;;0.20;89.66
63554;BME280;49699;48.072;7.800;2023-01-26T02:50:11;99928.03;;;0.17;89.25
63554;BME280;49699;48.072;7.800;2023-01-26T02:52:36;99917.81;;;0.14;89.60
63554;BME280;49699;48.072;7.800;2023-01-26T02:55:12;99911.00;;;0.13;89.51
63554;BME280;49699;48.072;7.800;2023-01-26T02:57:46;99911.84;;;0.11;89.42
63554;BME280;49699;48.072;7.800;2023-01-26T03:00:21;99911.03;;;0.07;89.60
63554;BME280;49699;48.072;7.800;2023-01-26T03:02:50;99924.66;;;0.09;89.57
63554;BME280;49699;48.072;7.800;2023-01-26T03:05:16;99923.78;;;0.13;89.55
63554;BME280;49699;48.072;7.800;2023-01-26T03:07:42;99916.94;;;0.15;89.91
63554;BME280;49699;48.072;7.800;2023-01-26T03:10:08;99911.78;;;0.18;89.19
63554;BME280;49699;48.072;7.800;2023-01-26T03:12:34;99910.91;;;0.21;89.62
63554;BME280;49699;48.072;7.800;2023-01-26T03:15:00;99916.00;;;0.24;89.58
63554;BME280;49699;48.072;7.800;2023-01-26T03:17:44;99909.16;;;0.27;89.50
63554;BME280;49699;48.072;7.800;2023-01-26T03:20:10;99901.50;;;0.26;89.09
63554;BME280;49699;48.072;7.800;2023-01-26T03:22:54;99901.50;;;0.23;89.25
63554;BME280;49699;48.072;7.800;2023-01-26T03:25:39;99898.97;;;0.20;89.10
63554;BME280;49699;48.072;7.800;2023-01-26T03:28:24;99900.66;;;0.24;89.39
63554;BME280;49699;48.072;7.800;2023-01-26T03:30:52;99898.06;;;0.25;89.15
63554;BME280;49699;48.072;7.800;2023-01-26T03:33:20;99900.63;;;0.27;88.98
63554;BME280;49699;48.072;7.800;2023-01-26T03:35:46;99904.91;;;0.26;89.04
63554;BME280;49699;48.072;7.800;2023-01-26T03:38:12;99906.59;;;0.29;88.81
63554;BME280;49699;48.072;7.800;2023-01-26T03:40:43;99901.47;;;0.29;89.03
63554;BME280;49699;48.072;7.800;2023-01-26T03:43:28;99903.16;;;0.30;88.57
63554;BME280;49699;48.072;7.800;2023-01-26T03:46:12;99897.19;;;0.29;88.64
63554;BME280;49699;48.072;7.800;2023-01-26T03:48:56;99893.78;;;0.29;88.53
63554;BME280;49699;48.072;7.800;2023-01-26T03:51:41;99903.19;;;0.27;88.33
63554;BME280;49699;48.072;7.800;2023-01-26T03:54:25;99906.59;;;0.26;88.27
63554;BME280;49699;48.072;7.800;2023-01-26T03:57:10;99903.19;;;0.25;88.29
63554;BME280;49699;48.072;7.800;2023-01-26T03:59:36;99909.16;;;0.27;88.24
63554;BME280;49699;48.072;7.800;2023-01-26T04:02:11;99906.59;;;0.26;88.38
63554;BME280;49699;48.072;7.800;2023-01-26T04:04:56;99903.19;;;0.27;88.30
63554;BME280;49699;48.072;7.800;2023-01-26T04:07:44;99902.34;;;0.26;87.75
63554;BME280;49699;48.072;7.800;2023-01-26T04:10:28;99900.63;;;0.27;87.86
63554;BME280;49699;48.072;7.800;2023-01-26T04:12:54;99900.63;;;0.28;87.60
63554;BME280;49699;48.072;7.800;2023-01-26T04:15:46;99904.91;;;0.26;87.22
63554;BME280;49699;48.072;7.800;2023-01-26T04:18:30;99893.00;;;0.19;87.09
63554;BME280;49699;48.072;7.800;2023-01-26T04:21:14;99893.06;;;0.13;87.09
63554;BME280;49699;48.072;7.800;2023-01-26T04:24:02;99890.53;;;0.12;87.39
63554;BME280;49699;48.072;7.800;2023-01-26T04:26:35;99889.66;;;0.13;87.13
63554;BME280;49699;48.072;7.800;2023-01-26T04:29:10;99882.88;;;0.09;87.10
63554;BME280;49699;48.072;7.800;2023-01-26T04:31:37;99874.34;;;0.05;87.17
63554;BME280;49699;48.072;7.800;2023-01-26T04:34:04;99873.50;;;0.03;87.29
63554;BME280;49699;48.072;7.800;2023-01-26T04:36:31;99881.19;;;0.05;87.36
63554;BME280;49699;48.072;7.800;2023-01-26T04:38:57;99866.66;;;0.07;87.59
63554;BME280;49699;48.072;7.800;2023-01-26T04:41:23;99872.66;;;0.06;87.29
63554;BME280;49699;48.072;7.800;2023-01-26T04:43:56;99868.38;;;0.06;87.56
63554;BME280;49699;48.072;7.800;2023-01-26T04:46:22;99869.22;;;0.07;87.46
63554;BME280;49699;48.072;7.800;2023-01-26T04:48:48;99864.09;;;0.10;87.37
63554;BME280;49699;48.072;7.800;2023-01-26T04:51:15;99863.25;;;0.06;87.13
63554;BME280;49699;48.072;7.800;2023-01-26T04:53:42;99857.28;;;0.06;87.24
63554;BME280;49699;48.072;7.800;2023-01-26T04:58:44;99853.03;;;0.03;87.29
63554;BME280;49699;48.072;7.800;2023-01-26T05:01:09;99849.59;;;0.07;87.26
63554;BME280;49699;48.072;7.800;2023-01-26T05:03:35;99863.25;;;0.06;87.22
63554;BME280;49699;48.072;7.800;2023-01-26T05:06:00;99852.19;;;0.04;87.02
63554;BME280;49699;48.072;7.800;2023-01-26T05:08:26;99853.91;;;0.02;87.27
63554;BME280;49699;48.072;7.800;2023-01-26T05:10:52;99854.75;;;0.01;87.42
63554;BME280;49699;48.072;7.800;2023-01-26T05:13:21;99850.56;;;-0.03;87.35
63554;BME280;49699;48.072;7.800;2023-01-26T05:16:06;99856.53;;;-0.04;87.42
63554;BME280;49699;48.072;7.800;2023-01-26T05:18:58;99855.69;;;-0.06;87.48
63554;BME280;49699;48.072;7.800;2023-01-26T05:21:49;99857.38;;;-0.04;87.58
63554;BME280;49699;48.072;7.800;2023-01-26T05:24:15;99858.22;;;-0.03;87.39
63554;BME280;49699;48.072;7.800;2023-01-26T05:27:02;99861.66;;;-0.04;87.38
63554;BME280;49699;48.072;7.800;2023-01-26T05:29:49;99857.38;;;-0.02;87.39
63554;BME280;49699;48.072;7.800;2023-01-26T05:32:15;99859.94;;;-0.04;87.39
63554;BME280;49699;48.072;7.800;2023-01-26T05:34:41;99853.97;;;-0.04;87.45
63554;BME280;49699;48.072;7.800;2023-01-26T05:37:07;99858.25;;;-0.05;87.41
63554;BME280;49699;48.072;7.800;2023-01-26T05:39:33;99857.41;;;-0.05;87.32
63554;BME280;49699;48.072;7.800;2023-01-26T05:42:00;99859.13;;;-0.07;87.63
63554;BME280;49699;48.072;7.800;2023-01-26T05:44:48;99868.50;;;-0.08;87.50
63554;BME280;49699;48.072;7.800;2023-01-26T05:47:15;99872.75;;;-0.08;87.87
63554;BME280;49699;48.072;7.800;2023-01-26T05:49:42;99865.06;;;-0.07;87.76
63554;BME280;49699;48.072;7.800;2023-01-26T05:52:13;99867.66;;;-0.08;87.75
63554;BME280;49699;48.072;7.800;2023-01-26T05:54:39;99868.50;;;-0.08;87.63
63554;BME280;49699;48.072;7.800;2023-01-26T05:57:05;99864.25;;;-0.10;87.34
63554;BME280;49699;48.072;7.800;2023-01-26T05:59:34;99866.81;;;-0.12;87.98
63554;BME280;49699;48.072;7.800;2023-01-26T06:02:01;99865.09;;;-0.10;87.91
63554;BME280;49699;48.072;7.800;2023-01-26T06:04:27;99859.16;;;-0.15;87.89
63554;BME280;49699;48.072;7.800;2023-01-26T06:06:58;99859.16;;;-0.15;88.04
63554;BME280;49699;48.072;7.800;2023-01-26T06:09:44;99863.47;;;-0.18;88.24
63554;BME280;49699;48.072;7.800;2023-01-26T06:12:39;99857.50;;;-0.19;88.32
63554;BME280;49699;48.072;7.800;2023-01-26T06:15:16;99856.63;;;-0.18;88.49
63554;BME280;49699;48.072;7.800;2023-01-26T06:17:44;99866.00;;;-0.17;88.43
63554;BME280;49699;48.072;7.800;2023-01-26T06:20:12;99860.91;;;-0.18;88.83
63554;BME280;49699;48.072;7.800;2023-01-26T06:22:41;99856.59;;;-0.16;88.44
63554;BME280;49699;48.072;7.800;2023-01-26T06:25:06;99854.09;;;-0.19;88.77
63554;BME280;49699;48.072;7.800;2023-01-26T06:27:33;99848.13;;;-0.20;88.75
63554;BME280;49699;48.072;7.800;2023-01-26T06:30:03;99846.44;;;-0.21;88.72
63554;BME280;49699;48.072;7.800;2023-01-26T06:32:30;99852.41;;;-0.20;88.84
63554;BME280;49699;48.072;7.800;2023-01-26T06:34:56;99848.16;;;-0.23;88.79
63554;BME280;49699;48.072;7.800;2023-01-26T06:37:22;99859.25;;;-0.27;88.77
63554;BME280;49699;48.072;7.800;2023-01-26T06:39:50;99847.34;;;-0.34;88.74
63554;BME280;49699;48.072;7.800;2023-01-26T06:42:15;99849.94;;;-0.36;88.96
63554;BME280;49699;48.072;7.800;2023-01-26T06:44:41;99851.69;;;-0.39;88.88
63554;BME280;49699;48.072;7.800;2023-01-26T06:47:07;99846.59;;;-0.44;89.02
63554;BME280;49699;48.072;7.800;2023-01-26T06:49:33;99851.72;;;-0.48;88.87
63554;BME280;49699;48.072;7.800;2023-01-26T06:52:04;99856.84;;;-0.53;89.06
63554;BME280;49699;48.072;7.800;2023-01-26T06:54:49;99851.78;;;-0.56;89.44
63554;BME280;49699;48.072;7.800;2023-01-26T06:57:18;99848.41;;;-0.58;89.59
63554;BME280;49699;48.072;7.800;2023-01-26T07:00:02;99842.44;;;-0.58;89.66
63554;BME280;49699;48.072;7.800;2023-01-26T07:02:52;99850.09;;;-0.60;89.44
63554;BME280;49699;48.072;7.800;2023-01-26T07:05:17;99851.81;;;-0.60;89.49
63554;BME280;49699;48.072;7.800;2023-01-26T07:07:43;99853.50;;;-0.59;89.38
63554;BME280;49699;48.072;7.800;2023-01-26T07:10:09;99859.47;;;-0.59;89.60
63554;BME280;49699;48.072;7.800;2023-01-26T07:12:42;99856.91;;;-0.54;89.48
63554;BME280;49699;48.072;7.800;2023-01-26T07:15:09;99850.91;;;-0.53;89.51
63554;BME280;49699;48.072;7.800;2023-01-26T07:17:36;99854.31;;;-0.51;89.45
63554;BME280;49699;48.072;7.800;2023-01-26T07:20:02;99854.31;;;-0.53;88.95
63554;BME280;49699;48.072;7.800;2023-01-26T07:22:27;99853.50;;;-0.55;89.02
63554;BME280;49699;48.072;7.800;2023-01-26T07:24:53;99856.06;;;-0.58;89.08
63554;BME280;49699;48.072;7.800;2023-01-26T07:27:18;99861.16;;;-0.55;88.95
63554;BME280;49699;48.072;7.800;2023-01-26T07:29:43;99862.88;;;-0.58;88.92
63554;BME280;49699;48.072;7.800;2023-01-26T07:32:10;99869.69;;;-0.59;89.06
63554;BME280;49699;48.072;7.800;2023-01-26T07:34:36;99867.16;;;-0.59;89.35
63554;BME280;49699;48.072;7.800;2023-01-26T07:37:01;99877.34;;;-0.56;89.41
63554;BME280;49699;48.072;7.800;2023-01-26T07:39:27;99873.94;;;-0.55;89.55
63554;BME280;49699;48.072;7.800;2023-01-26T07:41:52;99869.69;;;-0.54;89.16
63554;BME280;49699;48.072;7.800;2023-01-26T07:44:44;99873.09;;;-0.55;89.48
63554;BME280;49699;48.072;7.800;2023-01-26T07:47:09;99864.56;;;-0.56;89.05
63554;BME280;49699;48.072;7.800;2023-01-26T07:49:34;99867.97;;;-0.55;89.08
63554;BME280;49699;48.072;7.800;2023-01-26T07:52:00;99862.88;;;-0.57;89.26
63554;BME280;49699;48.072;7.800;2023-01-26T07:54:25;99867.13;;;-0.54;89.24
63554;BME280;49699;48.072;7.800;2023-01-26T07:56:54;99865.38;;;-0.52;89.23
63554;BME280;49699;48.072;7.800;2023-01-26T07:59:20;99862.81;;;-0.48;89.43
63554;BME280;49699;48.072;7.800;2023-01-26T08:01:48;99863.63;;;-0.44;89.16
63554;BME280;49699;48.072;7.800;2023-01-26T08:04:14;99869.59;;;-0.41;88.97
63554;BME280;49699;48.072;7.800;2023-01-26T08:06:39;99866.97;;;-0.35;89.18
63554;BME280;49699;48.072;7.800;2023-01-26T08:09:04;99871.22;;;-0.30;88.94
63554;BME280;49699;48.072;7.800;2023-01-26T08:11:30;99871.22;;;-0.30;88.79
63554;BME280;49699;48.072;7.800;2023-01-26T08:13:55;99865.25;;;-0.29;88.38
63554;BME280;49699;48.072;7.800;2023-01-26T08:16:21;99869.53;;;-0.33;88.51
63554;BME280;49699;48.072;7.800;2023-01-26T08:18:47;99867.81;;;-0.36;88.36
63554;BME280;49699;48.072;7.800;2023-01-26T08:21:14;99861.06;;;-0.38;88.91
63554;BME280;49699;48.072;7.800;2023-01-26T08:23:40;99870.44;;;-0.37;88.95
63554;BME280;49699;48.072;7.800;2023-01-26T08:26:08;99866.16;;;-0.38;88.75
63554;BME280;49699;48.072;7.800;2023-01-26T08:28:35;99864.47;;;-0.41;88.94
63554;BME280;49699;48.072;7.800;2023-01-26T08:31:05;99866.19;;;-0.40;88.87
63554;BME280;49699;48.072;7.800;2023-01-26T08:33:32;99867.88;;;-0.40;88.38
63554;BME280;49699;48.072;7.800;2023-01-26T08:36:03;99872.16;;;-0.41;88.55
63554;BME280;49699;48.072;7.800;2023-01-26T08:38:32;99870.44;;;-0.40;88.40
63554;BME280;49699;48.072;7.800;2023-01-26T08:40:59;99867.03;;;-0.42;88.63
63554;BME280;49699;48.072;7.800;2023-01-26T08:43:25;99873.84;;;-0.41;88.84
63554;BME280;49699;48.072;7.800;2023-01-26T08:45:50;99865.31;;;-0.40;89.08
63554;BME280;49699;48.072;7.800;2023-01-26T08:48:16;99875.50;;;-0.36;89.04
63554;BME280;49699;48.072;7.800;2023-01-26T08:50:42;99864.44;;;-0.36;88.57
63554;BME280;49699;48.072;7.800;2023-01-26T08:53:08;99869.56;;;-0.36;89.06
63554;BME280;49699;48.072;7.800;2023-01-26T08:55:34;99872.94;;;-0.34;88.72
63554;BME280;49699;48.072;7.800;2023-01-26T08:57:59;99876.31;;;-0.29;88.99
63554;BME280;49699;48.072;7.800;2023-01-26T09:00:25;99880.53;;;-0.22;88.81
63554;BME280;49699;48.072;7.800;2023-01-26T09:02:57;99879.63;;;-0.18;88.69
63554;BME280;49699;48.072;7.800;2023-01-26T09:05:23;99874.50;;;-0.15;88.50
63554;BME280;49699;48.072;7.800;2023-01-26T09:07:49;99874.50;;;-0.13;87.93
63554;BME280;49699;48.072;7.800;2023-01-26T09:10:14;99877.06;;;-0.15;88.11
63554;BME280;49699;48.072;7.800;2023-01-26T09:12:40;99865.13;;;-0.13;88.22
63554;BME280;49699;48.072;7.800;2023-01-26T09:15:06;99859.13;;;-0.12;88.26
63554;BME280;49699;48.072;7.800;2023-01-26T09:17:31;99882.16;;;-0.12;87.85
63554;BME280;49699;48.072;7.800;2023-01-26T09:19:57;99886.44;;;-0.11;87.90
63554;BME280;49699;48.072;7.800;2023-01-26T09:22:22;99877.91;;;-0.11;88.08
63554;BME280;49699;48.072;7.800;2023-01-26T09:24:48;99889.00;;;-0.14;88.01
63554;BME280;49699;48.072;7.800;2023-01-26T09:27:13;99877.06;;;-0.13;87.96
63554;BME280;49699;48.072;7.800;2023-01-26T09:29:39;99889.84;;;-0.10;88.07
63554;BME280;49699;48.072;7.800;2023-01-26T09:32:04;99884.66;;;-0.03;88.09
63554;BME280;49699;48.072;7.800;2023-01-26T09:34:29;99881.25;;;0.00;87.58
63554;BME280;49699;48.072;7.800;2023-01-26T09:36:55;99892.28;;;0.00;87.12
63554;BME280;49699;48.072;7.800;2023-01-26T09:39:20;99890.56;;;0.03;87.39
63554;BME280;49699;48.072;7.800;2023-01-26T09:44:34;99893.09;;;0.12;87.38
63554;BME280;49699;48.072;7.800;2023-01-26T09:47:20;99887.94;;;0.13;86.67
63554;BME280;49699;48.072;7.800;2023-01-26T09:50:01;99878.50;;;0.18;86.64
63554;BME280;49699;48.072;7.800;2023-01-26T09:52:32;99898.09;;;0.21;86.62
63554;BME280;49699;48.072;7.800;2023-01-26T09:55:04;99883.59;;;0.23;86.07
63554;BME280;49699;48.072;7.800;2023-01-26T09:57:46;99886.13;;;0.24;86.11
63554;BME280;49699;48.072;7.800;2023-01-26T10:00:28;99878.44;;;0.26;85.90
63554;BME280;49699;48.072;7.800;2023-01-26T10:03:19;99886.94;;;0.34;85.87
63554;BME280;49699;48.072;7.800;2023-01-26T10:06:13;99885.22;;;0.34;85.35
63554;BME280;49699;48.072;7.800;2023-01-26T10:09:11;99885.16;;;0.38;85.53
63554;BME280;49699;48.072;7.800;2023-01-26T10:11:43;99878.28;;;0.44;85.56
63554;BME280;49699;48.072;7.800;2023-01-26T10:14:18;99877.41;;;0.47;85.00
63554;BME280;49699;48.072;7.800;2023-01-26T10:16:48;99875.69;;;0.49;85.00
63554;BME280;49699;48.072;7.800;2023-01-26T10:19:38;99874.75;;;0.54;84.43
63554;BME280;49699;48.072;7.800;2023-01-26T10:22:13;99872.19;;;0.54;83.97
63554;BME280;49699;48.072;7.800;2023-01-26T10:24:41;99873.09;;;0.53;82.60
63554;BME280;49699;48.072;7.800;2023-01-26T10:27:12;99871.41;;;0.48;82.50
63554;BME280;49699;48.072;7.800;2023-01-26T10:29:40;99868.88;;;0.45;82.63
63554;BME280;49699;48.072;7.800;2023-01-26T10:32:12;99869.72;;;0.45;82.94
63554;BME280;49699;48.072;7.800;2023-01-26T10:34:38;99873.09;;;0.53;82.83
63554;BME280;49699;48.072;7.800;2023-01-26T10:37:22;99878.94;;;0.63;82.64
63554;BME280;49699;48.072;7.800;2023-01-26T10:40:04;99871.22;;;0.67;82.35
63554;BME280;49699;48.072;7.800;2023-01-26T10:42:33;99869.50;;;0.68;81.11
63554;BME280;49699;48.072;7.800;2023-01-26T10:45:01;99855.88;;;0.66;81.17
63554;BME280;49699;48.072;7.800;2023-01-26T10:47:27;99860.13;;;0.68;80.75
63554;BME280;49699;48.072;7.800;2023-01-26T10:50:22;99858.41;;;0.69;80.84
63554;BME280;49699;48.072;7.800;2023-01-26T10:52:59;99854.09;;;0.71;80.36
63554;BME280;49699;48.072;7.800;2023-01-26T10:55:26;99849.91;;;0.65;80.00
63554;BME280;49699;48.072;7.800;2023-01-26T10:57:51;99853.31;;;0.66;80.48
63554;BME280;49699;48.072;7.800;2023-01-26T11:00:35;99855.75;;;0.74;80.27
63554;BME280;49699;48.072;7.800;2023-01-26T11:05:35;99851.44;;;0.80;80.11
63554;BME280;49699;48.072;7.800;2023-01-26T11:08:01;99839.41;;;0.87;80.18
63554;BME280;49699;48.072;7.800;2023-01-26T11:10:38;99838.56;;;0.86;80.04
63554;BME280;49699;48.072;7.800;2023-01-26T11:13:18;99835.13;;;0.89;79.79
63554;BME280;49699;48.072;7.800;2023-01-26T11:15:48;99829.03;;;0.94;79.82
63554;BME280;49699;48.072;7.800;2023-01-26T11:31:32;99828.41;;;0.76;79.16
63554;BME280;49699;48.072;7.800;2023-01-26T11:39:25;99820.81;;;0.71;79.07
63554;BME280;49699;48.072;7.800;2023-01-26T11:53:08;99815.59;;;0.77;78.14
63554;BME280;49699;48.072;7.800;2023-01-26T11:58:30;99807.88;;;0.79;78.01
63554;BME280;49699;48.072;7.800;2023-01-26T12:00:59;99809.59;;;0.80;78.14
63554;BME280;49699;48.072;7.800;2023-01-26T12:06:01;99793.16;;;0.94;77.98
63554;BME280;49699;48.072;7.800;2023-01-26T12:08:29;99797.31;;;1.06;77.71
63554;BME280;49699;48.072;7.800;2023-01-26T12:11:07;99785.25;;;1.11;77.50
63554;BME280;49699;48.072;7.800;2023-01-26T12:16:43;99792.00;;;1.17;76.82
63554;BME280;49699;48.072;7.800;2023-01-26T12:21:53;99782.78;;;1.07;76.64
63554;BME280;49699;48.072;7.800;2023-01-26T12:24:37;99769.16;;;1.03;76.62
63554;BME280;49699;48.072;7.800;2023-01-26T12:27:23;99767.47;;;1.00;76.53
63554;BME280;49699;48.072;7.800;2023-01-26T12:30:17;99771.75;;;0.98;76.54
63554;BME280;49699;48.072;7.800;2023-01-26T12:32:45;99760.66;;;0.98;76.17
63554;BME280;49699;48.072;7.800;2023-01-26T12:35:10;99760.69;;;0.96;76.40
63554;BME280;49699;48.072;7.800;2023-01-26T12:37:44;99759.75;;;1.02;76.41
63554;BME280;49699;48.072;7.800;2023-01-26T12:40:42;99754.53;;;1.08;76.33
63554;BME280;49699;48.072;7.800;2023-01-26T12:45:46;99751.13;;;1.08;75.98
63554;BME280;49699;48.072;7.800;2023-01-26T12:50:45;99741.75;;;1.07;75.85
63554;BME280;49699;48.072;7.800;2023-01-26T12:55:53;99737.63;;;0.96;75.45
63554;BME280;49699;48.072;7.800;2023-01-26T12:58:27;99734.28;;;0.90;75.61
63554;BME280;49699;48.072;7.800;2023-01-26T13:01:05;99727.50;;;0.89;75.93
63554;BME280;49699;48.072;7.800;2023-01-26T13:03:34;99724.09;;;0.87;76.05
63554;BME280;49699;48.072;7.800;2023-01-26T13:11:07;99739.38;;;0.91;75.93
63554;BME280;49699;48.072;7.800;2023-01-26T13:13:51;99739.38;;;0.93;75.18
63554;BME280;49699;48.072;7.800;2023-01-26T13:18:48;99739.38;;;0.91;75.70
63554;BME280;49699;48.072;7.800;2023-01-26T13:23:58;99741.94;;;0.91;75.53
63554;BME280;49699;48.072;7.800;2023-01-26T13:26:40;99740.31;;;0.89;75.62
63554;BME280;49699;48.072;7.800;2023-01-26T13:34:43;99736.03;;;0.88;75.61
63554;BME280;49699;48.072;7.800;2023-01-26T13:39:58;99731.66;;;0.94;75.74
63554;BME280;49699;48.072;7.800;2023-01-26T13:42:30;99740.22;;;0.93;75.76
63554;BME280;49699;48.072;7.800;2023-01-26T13:45:07;99735.13;;;0.90;75.58
63554;BME280;49699;48.072;7.800;2023-01-26T13:47:41;99738.66;;;0.83;75.42
63554;BME280;49699;48.072;7.800;2023-01-26T13:50:50;99740.38;;;0.83;75.73
63554;BME280;49699;48.072;7.800;2023-01-26T13:52:57;99748.06;;;0.83;75.72
63554;BME280;49699;48.072;7.800;2023-01-26T13:55:28;99741.22;;;0.85;75.52
63554;BME280;49699;48.072;7.800;2023-01-26T13:58:15;99739.47;;;0.87;75.39
63554;BME280;49699;48.072;7.800;2023-01-26T14:00:42;99741.19;;;0.86;75.62
63554;BME280;49699;48.072;7.800;2023-01-26T14:03:23;99748.00;;;0.89;75.44
63554;BME280;49699;48.072;7.800;2023-01-26T14:05:54;99741.94;;;0.93;75.24
63554;BME280;49699;48.072;7.800;2023-01-26T14:08:21;99743.59;;;0.95;75.22
63554;BME280;49699;48.072;7.800;2023-01-26T14:10:48;99746.16;;;0.95;75.20
63554;BME280;49699;48.072;7.800;2023-01-26T14:13:30;99748.78;;;0.92;75.27
63554;BME280;49699;48.072;7.800;2023-01-26T14:16:00;99744.59;;;0.88;75.38
63554;BME280;49699;48.072;7.800;2023-01-26T14:18:27;99742.00;;;0.88;75.50
63554;BME280;49699;48.072;7.800;2023-01-26T14:21:15;99749.66;;;0.90;75.49
63554;BME280;49699;48.072;7.800;2023-01-26T14:23:41;99758.25;;;0.89;75.34
63554;BME280;49699;48.072;7.800;2023-01-26T14:26:17;99756.56;;;0.85;74.78
63554;BME280;49699;48.072;7.800;2023-01-26T14:28:44;99754.94;;;0.79;74.95
63554;BME280;49699;48.072;7.800;2023-01-26T14:31:23;99754.13;;;0.76;75.22
63554;BME280;49699;48.072;7.800;2023-01-26T14:33:51;99761.81;;;0.76;75.41
63554;BME280;49699;48.072;7.800;2023-01-26T14:36:21;99757.56;;;0.73;75.73
63554;BME280;49699;48.072;7.800;2023-01-26T14:38:49;99761.91;;;0.69;75.72
63554;BME280;49699;48.072;7.800;2023-01-26T14:41:21;99768.78;;;0.64;75.52
63554;BME280;49699;48.072;7.800;2023-01-26T14:43:53;99773.09;;;0.61;76.02
63554;BME280;49699;48.072;7.800;2023-01-26T14:52:25;99772.28;;;0.57;76.54